sensor_id;sensor_type;location;lat;lon;timestamp;pressure;altitude;pressure_sealevel;temperature;humidity
14253;BME280;7210;51.502;10.722;2023-05-27T00:00:41;100796.03;;;6.73;94.65
14253;BME280;7210;51.502;10.722;2023-05-27T00:03:08;100794.13;;;6.67;94.61
14253;BME280;7210;51.502;10.722;2023-05-27T00:05:36;100795.59;;;6.62;95.06
14253;BME280;7210;51.502;10.722;2023-05-27T00:08:08;100799.56;;;6.58;95.41
14253;BME280;7210;51.502;10.722;2023-05-27T00:10:36;100796.94;;;6.58;95.43
14253;BME280;7210;51.502;10.722;2023-05-27T00:13:03;100792.03;;;6.55;95.24
14253;BME280;7210;51.502;10.722;2023-05-27T00:15:51;100796.31;;;6.56;95.70
14253;BME280;7210;51.502;10.722;2023-05-27T00:18:21;100789.75;;;6.52;95.54
14253;BME280;7210;51.502;10.722;2023-05-27T00:20:48;100802.38;;;6.56;95.60
14253;BME280;7210;51.502;10.722;2023-05-27T00:23:15;100792.22;;;6.53;95.53
14253;BME280;7210;51.502;10.722;2023-05-27T00:25:43;100777.00;;;6.41;95.98
14253;BME280;7210;51.502;10.722;2023-05-27T00:28:10;100777.28;;;6.46;96.00
14253;BME280;7210;51.502;10.722;2023-05-27T00:30:37;100783.53;;;6.45;96.40
14253;BME280;7210;51.502;10.722;2023-05-27T00:33:10;100789.63;;;6.45;96.22
14253;BME280;7210;51.502;10.722;2023-05-27T00:35:37;100793.72;;;6.48;96.75
14253;BME280;7210;51.502;10.722;2023-05-27T00:38:04;100787.75;;;6.54;96.97
14253;BME280;7210;51.502;10.722;2023-05-27T00:40:35;100801.56;;;6.56;96.67
14253;BME280;7210;51.502;10.722;2023-05-27T00:43:03;100790.38;;;6.54;96.70
14253;BME280;7210;51.502;10.722;2023-05-27T00:45:38;100783.53;;;6.45;96.40
14253;BME280;7210;51.502;10.722;2023-05-27T00:48:06;100776.03;;;6.34;96.47
14253;BME280;7210;51.502;10.722;2023-05-27T00:50:35;100790.09;;;6.49;96.72
14253;BME280;7210;51.502;10.722;2023-05-27T00:53:04;100788.94;;;6.51;96.51
14253;BME280;7210;51.502;10.722;2023-05-27T00:55:33;100783.50;;;6.53;96.49
14253;BME280;7210;51.502;10.722;2023-05-27T00:58:04;100772.69;;;6.48;96.38
14253;BME280;7210;51.502;10.722;2023-05-27T01:00:33;100777.59;;;6.51;96.47
14253;BME280;7210;51.502;10.722;2023-05-27T01:03:00;100770.44;;;6.37;96.31
14253;BME280;7210;51.502;10.722;2023-05-27T01:05:34;100770.19;;;6.24;96.44
14253;BME280;7210;51.502;10.722;2023-05-27T01:08:15;100766.63;;;6.09;96.20
14253;BME280;7210;51.502;10.722;2023-05-27T01:10:51;100759.09;;;5.98;96.50
14253;BME280;7210;51.502;10.722;2023-05-27T01:13:31;100773.38;;;5.95;96.57
14253;BME280;7210;51.502;10.722;2023-05-27T01:16:11;100750.91;;;5.77;96.59
14253;BME280;7210;51.502;10.722;2023-05-27T01:18:58;100763.06;;;5.78;96.89
14253;BME280;7210;51.502;10.722;2023-05-27T01:21:33;100760.75;;;5.75;96.78
14253;BME280;7210;51.502;10.722;2023-05-27T01:24:05;100757.50;;;5.65;96.84
14253;BME280;7210;51.502;10.722;2023-05-27T01:26:34;100761.75;;;5.66;96.90
14253;BME280;7210;51.502;10.722;2023-05-27T01:29:03;100758.16;;;5.59;96.92
14253;BME280;7210;51.502;10.722;2023-05-27T01:31:40;100753.56;;;5.53;97.11
14253;BME280;7210;51.502;10.722;2023-05-27T01:34:10;100767.84;;;5.50;97.31
14253;BME280;7210;51.502;10.722;2023-05-27T01:36:47;100746.53;;;5.45;97.82
14253;BME280;7210;51.502;10.722;2023-05-27T01:39:17;100762.59;;;5.58;97.84
14253;BME280;7210;51.502;10.722;2023-05-27T01:41:52;100759.13;;;5.66;98.01
14253;BME280;7210;51.502;10.722;2023-05-27T01:44:21;100765.00;;;5.76;98.22
14253;BME280;7210;51.502;10.722;2023-05-27T01:46:50;100757.47;;;5.73;98.01
14253;BME280;7210;51.502;10.722;2023-05-27T01:49:17;100746.66;;;5.68;97.50
14253;BME280;7210;51.502;10.722;2023-05-27T01:51:45;100747.81;;;5.57;97.49
14253;BME280;7210;51.502;10.722;2023-05-27T01:54:16;100751.28;;;5.58;97.63
14253;BME280;7210;51.502;10.722;2023-05-27T01:56:44;100743.91;;;5.53;97.88
14253;BME280;7210;51.502;10.722;2023-05-27T01:59:13;100754.06;;;5.56;97.97
14253;BME280;7210;51.502;10.722;2023-05-27T02:01:42;100740.16;;;5.48;98.14
14253;BME280;7210;51.502;10.722;2023-05-27T02:04:32;100743.75;;;5.47;98.46
14253;BME280;7210;51.502;10.722;2023-05-27T02:07:03;100751.28;;;5.42;98.62
14253;BME280;7210;51.502;10.722;2023-05-27T02:09:31;100746.06;;;5.42;99.12
14253;BME280;7210;51.502;10.722;2023-05-27T02:14:54;100751.94;;;5.44;99.51
14253;BME280;7210;51.502;10.722;2023-05-27T02:17:21;100757.69;;;5.39;99.41
14253;BME280;7210;51.502;10.722;2023-05-27T02:19:50;100752.44;;;5.39;99.47
14253;BME280;7210;51.502;10.722;2023-05-27T02:22:18;100747.03;;;5.33;99.50
14253;BME280;7210;51.502;10.722;2023-05-27T02:24:49;100746.06;;;5.26;99.54
14253;BME280;7210;51.502;10.722;2023-05-27T02:27:16;100736.72;;;5.23;99.72
14253;BME280;7210;51.502;10.722;2023-05-27T02:29:43;100742.78;;;5.24;99.85
14253;BME280;7210;51.502;10.722;2023-05-27T02:32:11;100734.09;;;5.15;99.65
14253;BME280;7210;51.502;10.722;2023-05-27T02:34:41;100733.28;;;5.15;99.39
14253;BME280;7210;51.502;10.722;2023-05-27T02:37:10;100732.97;;;5.10;99.72
14253;BME280;7210;51.502;10.722;2023-05-27T02:39:38;100733.94;;;5.09;99.54
14253;BME280;7210;51.502;10.722;2023-05-27T02:42:08;100737.84;;;5.05;99.67
14253;BME280;7210;51.502;10.722;2023-05-27T02:44:35;100734.94;;;5.00;99.58
14253;BME280;7210;51.502;10.722;2023-05-27T02:47:02;100730.97;;;4.96;99.48
14253;BME280;7210;51.502;10.722;2023-05-27T02:49:30;100729.19;;;4.96;99.84
14253;BME280;7210;51.502;10.722;2023-05-27T02:51:57;100718.84;;;4.87;99.81
14253;BME280;7210;51.502;10.722;2023-05-27T02:54:24;100728.34;;;4.80;99.85
14253;BME280;7210;51.502;10.722;2023-05-27T02:56:51;100723.44;;;4.77;99.92
14253;BME280;7210;51.502;10.722;2023-05-27T02:59:25;100734.38;;;4.72;100.00
14253;BME280;7210;51.502;10.722;2023-05-27T03:01:52;100733.41;;;4.73;100.00
14253;BME280;7210;51.502;10.722;2023-05-27T03:04:19;100735.56;;;4.78;100.00
14253;BME280;7210;51.502;10.722;2023-05-27T03:06:47;100736.69;;;4.75;100.00
14253;BME280;7210;51.502;10.722;2023-05-27T03:09:14;100728.97;;;4.74;100.00
14253;BME280;7210;51.502;10.722;2023-05-27T03:11:54;100728.19;;;4.73;100.00
14253;BME280;7210;51.502;10.722;2023-05-27T03:14:21;100728.81;;;4.67;100.00
14253;BME280;7210;51.502;10.722;2023-05-27T03:16:50;100724.56;;;4.58;100.00
14253;BME280;7210;51.502;10.722;2023-05-27T03:19:17;100721.59;;;4.53;100.00
14253;BME280;7210;51.502;10.722;2023-05-27T03:21:44;100726.69;;;4.63;100.00
14253;BME280;7210;51.502;10.722;2023-05-27T03:24:13;100725.38;;;4.67;100.00
14253;BME280;7210;51.502;10.722;2023-05-27T03:26:40;100715.38;;;4.62;100.00
14253;BME280;7210;51.502;10.722;2023-05-27T03:29:08;100705.53;;;4.56;100.00
14253;BME280;7210;51.502;10.722;2023-05-27T03:31:37;100703.41;;;4.60;100.00
14253;BME280;7210;51.502;10.722;2023-05-27T03:34:14;100702.78;;;4.58;100.00
14253;BME280;7210;51.502;10.722;2023-05-27T03:36:41;100705.88;;;4.53;100.00
14253;BME280;7210;51.502;10.722;2023-05-27T03:39:13;100709.31;;;4.54;100.00
14253;BME280;7210;51.502;10.722;2023-05-27T03:41:54;100705.88;;;4.53;100.00
14253;BME280;7210;51.502;10.722;2023-05-27T03:44:24;100708.63;;;4.52;100.00
14253;BME280;7210;51.502;10.722;2023-05-27T03:46:52;100709.81;;;4.57;100.00
14253;BME280;7210;51.502;10.722;2023-05-27T03:49:20;100708.34;;;4.55;100.00
14253;BME280;7210;51.502;10.722;2023-05-27T03:51:47;100709.97;;;4.56;100.00
14253;BME280;7210;51.502;10.722;2023-05-27T03:54:15;100718.47;;;4.58;100.00
14253;BME280;7210;51.502;10.722;2023-05-27T03:56:48;100711.94;;;4.54;100.00
14253;BME280;7210;51.502;10.722;2023-05-27T03:59:16;100717.50;;;4.67;100.00
14253;BME280;7210;51.502;10.722;2023-05-27T04:01:48;100720.97;;;4.83;100.00
14253;BME280;7210;51.502;10.722;2023-05-27T04:04:19;100719.16;;;4.84;100.00
14253;BME280;7210;51.502;10.722;2023-05-27T04:06:46;100703.78;;;4.81;100.00
14253;BME280;7210;51.502;10.722;2023-05-27T04:09:18;100715.25;;;4.88;100.00
14253;BME280;7210;51.502;10.722;2023-05-27T04:11:45;100715.09;;;4.97;100.00
14253;BME280;7210;51.502;10.722;2023-05-27T04:14:12;100719.38;;;5.06;100.00
14253;BME280;7210;51.502;10.722;2023-05-27T04:16:39;100724.44;;;5.16;100.00
14253;BME280;7210;51.502;10.722;2023-05-27T04:19:07;100722.31;;;5.27;100.00
14253;BME280;7210;51.502;10.722;2023-05-27T04:21:35;100730.66;;;5.39;100.00
14253;BME280;7210;51.502;10.722;2023-05-27T04:24:03;100732.44;;;5.46;100.00
14253;BME280;7210;51.502;10.722;2023-05-27T04:26:31;100734.56;;;5.59;100.00
14253;BME280;7210;51.502;10.722;2023-05-27T04:28:59;100730.94;;;5.60;100.00
14253;BME280;7210;51.502;10.722;2023-05-27T04:31:27;100722.91;;;5.61;100.00
14253;BME280;7210;51.502;10.722;2023-05-27T04:34:01;100720.13;;;5.63;100.00
14253;BME280;7210;51.502;10.722;2023-05-27T04:36:30;100718.16;;;5.65;100.00
14253;BME280;7210;51.502;10.722;2023-05-27T04:39:09;100715.19;;;5.68;100.00
14253;BME280;7210;51.502;10.722;2023-05-27T04:41:40;100733.22;;;5.79;100.00
14253;BME280;7210;51.502;10.722;2023-05-27T04:44:42;100732.22;;;5.88;100.00
14253;BME280;7210;51.502;10.722;2023-05-27T04:47:12;100739.09;;;5.97;100.00
14253;BME280;7210;51.502;10.722;2023-05-27T04:49:42;100738.41;;;6.03;100.00
14253;BME280;7210;51.502;10.722;2023-05-27T04:52:10;100754.44;;;6.24;100.00
14253;BME280;7210;51.502;10.722;2023-05-27T04:54:39;100744.84;;;6.31;100.00
14253;BME280;7210;51.502;10.722;2023-05-27T04:57:16;100753.00;;;6.44;100.00
14253;BME280;7210;51.502;10.722;2023-05-27T04:59:44;100757.88;;;6.55;100.00
14253;BME280;7210;51.502;10.722;2023-05-27T05:02:43;100746.81;;;6.67;100.00
14253;BME280;7210;51.502;10.722;2023-05-27T05:05:14;100739.06;;;6.74;100.00
14253;BME280;7210;51.502;10.722;2023-05-27T05:07:42;100753.72;;;6.91;100.00
14253;BME280;7210;51.502;10.722;2023-05-27T05:10:13;100744.16;;;6.98;100.00
14253;BME280;7210;51.502;10.722;2023-05-27T05:12:56;100750.91;;;7.15;100.00
14253;BME280;7210;51.502;10.722;2023-05-27T05:15:25;100750.50;;;7.26;100.00
14253;BME280;7210;51.502;10.722;2023-05-27T05:17:54;100748.44;;;7.35;100.00
14253;BME280;7210;51.502;10.722;2023-05-27T05:20:22;100752.28;;;7.47;100.00
14253;BME280;7210;51.502;10.722;2023-05-27T05:22:49;100748.41;;;7.58;100.00
14253;BME280;7210;51.502;10.722;2023-05-27T05:25:18;100752.69;;;7.73;100.00
14253;BME280;7210;51.502;10.722;2023-05-27T05:27:48;100744.81;;;7.88;100.00
14253;BME280;7210;51.502;10.722;2023-05-27T05:30:18;100743.91;;;7.95;100.00
14253;BME280;7210;51.502;10.722;2023-05-27T05:32:45;100744.44;;;8.05;100.00
14253;BME280;7210;51.502;10.722;2023-05-27T05:35:18;100743.66;;;8.19;100.00
14253;BME280;7210;51.502;10.722;2023-05-27T05:37:50;100755.25;;;8.39;100.00
14253;BME280;7210;51.502;10.722;2023-05-27T05:40:21;100754.69;;;8.58;100.00
14253;BME280;7210;51.502;10.722;2023-05-27T05:43:11;100752.72;;;8.81;100.00
14253;BME280;7210;51.502;10.722;2023-05-27T05:45:39;100753.28;;;8.98;100.00
14253;BME280;7210;51.502;10.722;2023-05-27T05:48:07;100760.59;;;9.17;100.00
14253;BME280;7210;51.502;10.722;2023-05-27T05:50:37;100762.22;;;9.39;100.00
14253;BME280;7210;51.502;10.722;2023-05-27T05:53:05;100755.38;;;9.51;100.00
14253;BME280;7210;51.502;10.722;2023-05-27T05:55:35;100759.81;;;9.71;100.00
14253;BME280;7210;51.502;10.722;2023-05-27T05:58:03;100759.50;;;9.87;100.00
14253;BME280;7210;51.502;10.722;2023-05-27T06:00:30;100759.31;;;10.10;100.00
14253;BME280;7210;51.502;10.722;2023-05-27T06:03:17;100751.28;;;10.31;100.00
14253;BME280;7210;51.502;10.722;2023-05-27T06:05:48;100738.31;;;10.42;99.89
14253;BME280;7210;51.502;10.722;2023-05-27T06:08:15;100729.81;;;10.53;98.84
14253;BME280;7210;51.502;10.722;2023-05-27T06:10:51;100732.69;;;10.71;97.53
14253;BME280;7210;51.502;10.722;2023-05-27T06:13:19;100721.38;;;10.90;96.67
14253;BME280;7210;51.502;10.722;2023-05-27T06:15:48;100733.59;;;11.17;95.92
14253;BME280;7210;51.502;10.722;2023-05-27T06:18:17;100727.91;;;11.33;95.10
14253;BME280;7210;51.502;10.722;2023-05-27T06:20:54;100730.16;;;11.49;94.22
14253;BME280;7210;51.502;10.722;2023-05-27T06:23:23;100731.41;;;11.59;93.29
14253;BME280;7210;51.502;10.722;2023-05-27T06:26:06;100732.03;;;11.68;92.27
14253;BME280;7210;51.502;10.722;2023-05-27T06:28:41;100734.84;;;11.73;92.01
14253;BME280;7210;51.502;10.722;2023-05-27T06:31:08;100750.31;;;11.89;91.82
14253;BME280;7210;51.502;10.722;2023-05-27T06:33:36;100757.66;;;12.00;91.23
14253;BME280;7210;51.502;10.722;2023-05-27T06:36:03;100760.88;;;12.08;90.19
14253;BME280;7210;51.502;10.722;2023-05-27T06:38:31;100755.38;;;12.16;89.09
14253;BME280;7210;51.502;10.722;2023-05-27T06:40:58;100754.31;;;12.24;88.29
14253;BME280;7210;51.502;10.722;2023-05-27T06:43:27;100755.50;;;12.34;87.18
14253;BME280;7210;51.502;10.722;2023-05-27T06:46:02;100751.63;;;12.37;86.41
14253;BME280;7210;51.502;10.722;2023-05-27T06:48:50;100785.66;;;12.53;86.20
14253;BME280;7210;51.502;10.722;2023-05-27T06:51:18;100799.47;;;12.61;85.86
14253;BME280;7210;51.502;10.722;2023-05-27T06:53:45;100811.47;;;12.70;85.17
14253;BME280;7210;51.502;10.722;2023-05-27T06:56:18;100811.88;;;12.74;84.78
14253;BME280;7210;51.502;10.722;2023-05-27T06:59:11;100830.59;;;12.85;84.36
14253;BME280;7210;51.502;10.722;2023-05-27T07:01:38;100833.69;;;12.95;83.70
14253;BME280;7210;51.502;10.722;2023-05-27T07:04:08;100847.34;;;12.99;83.28
14253;BME280;7210;51.502;10.722;2023-05-27T07:06:54;100863.19;;;13.12;83.14
14253;BME280;7210;51.502;10.722;2023-05-27T07:09:21;100868.69;;;13.17;82.45
14253;BME280;7210;51.502;10.722;2023-05-27T07:11:49;100881.94;;;13.30;82.00
14253;BME280;7210;51.502;10.722;2023-05-27T07:14:37;100876.97;;;13.40;81.11
14253;BME280;7210;51.502;10.722;2023-05-27T07:17:06;100892.84;;;13.53;80.49
14253;BME280;7210;51.502;10.722;2023-05-27T07:19:36;100901.94;;;13.63;79.91
14253;BME280;7210;51.502;10.722;2023-05-27T07:22:07;100895.13;;;13.74;79.34
14253;BME280;7210;51.502;10.722;2023-05-27T07:24:34;100903.47;;;13.84;78.93
14253;BME280;7210;51.502;10.722;2023-05-27T07:27:03;100910.03;;;13.81;78.31
14253;BME280;7210;51.502;10.722;2023-05-27T07:29:33;100920.19;;;13.91;78.24
14253;BME280;7210;51.502;10.722;2023-05-27T07:32:13;100936.78;;;14.11;77.68
14253;BME280;7210;51.502;10.722;2023-05-27T07:34:41;100946.16;;;14.20;77.21
14253;BME280;7210;51.502;10.722;2023-05-27T07:37:08;100968.53;;;14.37;77.08
14253;BME280;7210;51.502;10.722;2023-05-27T07:39:36;100974.63;;;14.44;76.48
14253;BME280;7210;51.502;10.722;2023-05-27T07:42:04;100964.69;;;14.57;75.77
14253;BME280;7210;51.502;10.722;2023-05-27T07:44:32;100962.56;;;14.66;75.34
14253;BME280;7210;51.502;10.722;2023-05-27T07:46:59;100973.50;;;14.76;74.39
14253;BME280;7210;51.502;10.722;2023-05-27T07:49:28;100951.19;;;14.77;73.23
14253;BME280;7210;51.502;10.722;2023-05-27T07:52:10;100957.84;;;14.86;72.83
14253;BME280;7210;51.502;10.722;2023-05-27T07:54:38;100985.44;;;14.91;72.77
14253;BME280;7210;51.502;10.722;2023-05-27T07:57:05;100991.16;;;14.95;72.84
14253;BME280;7210;51.502;10.722;2023-05-27T07:59:33;101001.53;;;15.03;72.35
14253;BME280;7210;51.502;10.722;2023-05-27T08:02:06;101034.38;;;15.14;72.26
14253;BME280;7210;51.502;10.722;2023-05-27T08:04:34;101052.06;;;15.33;72.14
14253;BME280;7210;51.502;10.722;2023-05-27T08:07:22;100997.50;;;15.36;70.79
14253;BME280;7210;51.502;10.722;2023-05-27T08:10:05;100986.75;;;15.42;69.88
14253;BME280;7210;51.502;10.722;2023-05-27T08:12:52;101038.88;;;15.56;70.12
14253;BME280;7210;51.502;10.722;2023-05-27T08:15:40;101019.69;;;15.66;69.08
14253;BME280;7210;51.502;10.722;2023-05-27T08:18:20;101049.88;;;15.78;69.34
14253;BME280;7210;51.502;10.722;2023-05-27T08:21:07;101073.03;;;15.95;69.36
14253;BME280;7210;51.502;10.722;2023-05-27T08:23:58;101039.84;;;15.91;68.27
14253;BME280;7210;51.502;10.722;2023-05-27T08:26:43;101062.28;;;16.02;68.13
14253;BME280;7210;51.502;10.722;2023-05-27T08:29:24;101054.78;;;16.10;67.59
14253;BME280;7210;51.502;10.722;2023-05-27T08:32:25;101083.25;;;16.16;67.85
14253;BME280;7210;51.502;10.722;2023-05-27T08:34:52;101120.13;;;16.37;67.93
14253;BME280;7210;51.502;10.722;2023-05-27T08:37:21;101133.81;;;16.59;67.56
14253;BME280;7210;51.502;10.722;2023-05-27T08:39:49;101116.53;;;16.84;66.77
14253;BME280;7210;51.502;10.722;2023-05-27T08:42:37;101069.84;;;16.87;65.10
14253;BME280;7210;51.502;10.722;2023-05-27T08:45:06;101106.00;;;17.01;65.85
14253;BME280;7210;51.502;10.722;2023-05-27T08:47:34;101090.31;;;17.04;65.31
14253;BME280;7210;51.502;10.722;2023-05-27T08:50:03;101080.66;;;17.03;64.55
14253;BME280;7210;51.502;10.722;2023-05-27T08:52:45;101095.31;;;17.12;64.41
14253;BME280;7210;51.502;10.722;2023-05-27T08:55:16;101070.91;;;17.20;63.46
14253;BME280;7210;51.502;10.722;2023-05-27T08:57:51;101104.38;;;17.34;63.72
14253;BME280;7210;51.502;10.722;2023-05-27T09:00:21;101093.00;;;17.27;63.43
14253;BME280;7210;51.502;10.722;2023-05-27T09:02:52;101102.75;;;17.33;63.29
14253;BME280;7210;51.502;10.722;2023-05-27T09:05:22;101084.75;;;17.40;62.50
14253;BME280;7210;51.502;10.722;2023-05-27T09:07:50;101058.47;;;17.37;61.86
14253;BME280;7210;51.502;10.722;2023-05-27T09:10:18;101086.97;;;17.43;62.02
14253;BME280;7210;51.502;10.722;2023-05-27T09:12:45;101082.19;;;17.45;61.52
14253;BME280;7210;51.502;10.722;2023-05-27T09:15:13;101129.72;;;17.66;62.11
14253;BME280;7210;51.502;10.722;2023-05-27T09:17:42;101102.06;;;17.61;61.39
14253;BME280;7210;51.502;10.722;2023-05-27T09:20:11;101123.31;;;17.67;61.21
14253;BME280;7210;51.502;10.722;2023-05-27T09:22:40;101092.72;;;17.75;60.45
14253;BME280;7210;51.502;10.722;2023-05-27T09:25:09;101112.59;;;17.79;60.63
14253;BME280;7210;51.502;10.722;2023-05-27T09:27:36;101134.69;;;17.86;60.63
14253;BME280;7210;51.502;10.722;2023-05-27T09:30:09;101130.44;;;18.01;59.91
14253;BME280;7210;51.502;10.722;2023-05-27T09:32:37;101198.53;;;18.17;60.83
14253;BME280;7210;51.502;10.722;2023-05-27T09:35:06;101149.03;;;18.19;59.70
14253;BME280;7210;51.502;10.722;2023-05-27T09:37:34;101181.03;;;18.37;59.78
14253;BME280;7210;51.502;10.722;2023-05-27T09:40:06;101173.00;;;18.37;60.08
14253;BME280;7210;51.502;10.722;2023-05-27T09:42:42;101123.59;;;18.45;58.90
14253;BME280;7210;51.502;10.722;2023-05-27T09:45:13;101172.22;;;18.53;59.07
14253;BME280;7210;51.502;10.722;2023-05-27T09:47:43;101228.97;;;18.78;59.54
14253;BME280;7210;51.502;10.722;2023-05-27T09:50:14;101187.56;;;18.86;58.65
14253;BME280;7210;51.502;10.722;2023-05-27T09:52:43;101145.88;;;18.78;58.18
14253;BME280;7210;51.502;10.722;2023-05-27T09:55:12;101169.69;;;18.91;57.89
14253;BME280;7210;51.502;10.722;2023-05-27T09:57:42;101203.75;;;19.07;58.25
14253;BME280;7210;51.502;10.722;2023-05-27T10:00:11;101126.97;;;19.01;57.05
14253;BME280;7210;51.502;10.722;2023-05-27T10:02:42;101177.03;;;19.12;57.21
14253;BME280;7210;51.502;10.722;2023-05-27T10:05:12;101213.50;;;19.41;57.15
14253;BME280;7210;51.502;10.722;2023-05-27T10:07:41;101165.75;;;19.43;56.56
14253;BME280;7210;51.502;10.722;2023-05-27T10:10:11;101183.56;;;19.49;56.46
14253;BME280;7210;51.502;10.722;2023-05-27T10:12:41;101213.00;;;19.60;56.94
14253;BME280;7210;51.502;10.722;2023-05-27T10:15:21;101178.81;;;19.56;56.11
14253;BME280;7210;51.502;10.722;2023-05-27T10:17:53;101191.81;;;19.64;56.04
14253;BME280;7210;51.502;10.722;2023-05-27T10:20:29;101171.81;;;19.55;55.87
14253;BME280;7210;51.502;10.722;2023-05-27T10:23:09;101120.19;;;19.48;55.68
14253;BME280;7210;51.502;10.722;2023-05-27T10:25:38;101168.59;;;19.53;56.08
14253;BME280;7210;51.502;10.722;2023-05-27T10:28:06;101252.81;;;19.85;56.43
14253;BME280;7210;51.502;10.722;2023-05-27T10:30:53;101216.31;;;20.05;55.86
14253;BME280;7210;51.502;10.722;2023-05-27T10:33:28;101141.16;;;19.89;55.31
14253;BME280;7210;51.502;10.722;2023-05-27T10:36:03;101204.13;;;19.98;55.57
14253;BME280;7210;51.502;10.722;2023-05-27T10:38:30;101193.06;;;20.11;55.62
14253;BME280;7210;51.502;10.722;2023-05-27T10:41:00;101160.81;;;20.11;54.92
14253;BME280;7210;51.502;10.722;2023-05-27T10:43:29;101174.47;;;20.31;54.70
14253;BME280;7210;51.502;10.722;2023-05-27T10:46:08;101205.78;;;20.42;55.21
14253;BME280;7210;51.502;10.722;2023-05-27T10:48:36;101137.53;;;20.43;53.86
14253;BME280;7210;51.502;10.722;2023-05-27T10:51:06;101064.00;;;20.27;53.38
14253;BME280;7210;51.502;10.722;2023-05-27T10:53:36;101129.78;;;20.25;54.21
14253;BME280;7210;51.502;10.722;2023-05-27T10:56:04;101194.47;;;20.40;54.96
14253;BME280;7210;51.502;10.722;2023-05-27T10:58:35;101148.06;;;20.49;54.06
14253;BME280;7210;51.502;10.722;2023-05-27T11:01:10;101174.03;;;20.65;53.92
14253;BME280;7210;51.502;10.722;2023-05-27T11:03:43;101191.34;;;20.96;53.34
14253;BME280;7210;51.502;10.722;2023-05-27T11:06:12;101155.84;;;20.99;53.30
14253;BME280;7210;51.502;10.722;2023-05-27T11:08:40;101102.28;;;20.97;52.24
14253;BME280;7210;51.502;10.722;2023-05-27T11:11:09;101085.31;;;20.92;51.89
14253;BME280;7210;51.502;10.722;2023-05-27T11:13:40;101113.22;;;21.17;51.63
14253;BME280;7210;51.502;10.722;2023-05-27T11:16:11;101057.44;;;21.08;50.96
14253;BME280;7210;51.502;10.722;2023-05-27T11:18:40;101111.88;;;21.20;51.76
14253;BME280;7210;51.502;10.722;2023-05-27T11:21:09;101169.84;;;21.37;52.31
14253;BME280;7210;51.502;10.722;2023-05-27T11:23:39;101094.72;;;21.31;51.43
14253;BME280;7210;51.502;10.722;2023-05-27T11:26:14;101079.69;;;21.35;51.09
14253;BME280;7210;51.502;10.722;2023-05-27T11:28:52;101169.16;;;21.57;52.28
14253;BME280;7210;51.502;10.722;2023-05-27T11:31:30;101085.41;;;21.53;50.99
14253;BME280;7210;51.502;10.722;2023-05-27T11:34:04;101030.44;;;21.39;50.49
14253;BME280;7210;51.502;10.722;2023-05-27T11:36:31;101089.88;;;21.33;51.59
14253;BME280;7210;51.502;10.722;2023-05-27T11:39:04;101060.91;;;21.45;50.45
14253;BME280;7210;51.502;10.722;2023-05-27T11:41:50;101117.88;;;21.73;50.46
14253;BME280;7210;51.502;10.722;2023-05-27T11:44:26;101103.09;;;21.86;50.37
14253;BME280;7210;51.502;10.722;2023-05-27T11:47:00;101085.34;;;21.90;50.28
14253;BME280;7210;51.502;10.722;2023-05-27T11:49:29;100966.19;;;21.63;48.70
14253;BME280;7210;51.502;10.722;2023-05-27T11:51:57;101125.78;;;21.95;50.30
14253;BME280;7210;51.502;10.722;2023-05-27T11:54:27;101075.16;;;22.07;49.28
14253;BME280;7210;51.502;10.722;2023-05-27T11:56:57;101119.44;;;22.31;49.33
14253;BME280;7210;51.502;10.722;2023-05-27T11:59:26;101110.34;;;22.52;49.06
14253;BME280;7210;51.502;10.722;2023-05-27T12:01:55;101068.75;;;22.38;48.91
14253;BME280;7210;51.502;10.722;2023-05-27T12:04:25;100955.50;;;22.03;48.04
14253;BME280;7210;51.502;10.722;2023-05-27T12:06:55;101081.91;;;22.14;49.29
14253;BME280;7210;51.502;10.722;2023-05-27T12:09:25;101125.38;;;22.28;49.81
14253;BME280;7210;51.502;10.722;2023-05-27T12:11:54;101066.59;;;22.35;48.70
14253;BME280;7210;51.502;10.722;2023-05-27T12:14:22;101096.06;;;22.56;48.66
14253;BME280;7210;51.502;10.722;2023-05-27T12:16:51;101053.44;;;22.58;48.33
14253;BME280;7210;51.502;10.722;2023-05-27T12:19:19;101101.19;;;22.78;48.48
14253;BME280;7210;51.502;10.722;2023-05-27T12:21:50;101134.63;;;23.12;47.82
14253;BME280;7210;51.502;10.722;2023-05-27T12:24:18;101025.34;;;23.04;46.77
14253;BME280;7210;51.502;10.722;2023-05-27T12:26:46;101079.59;;;23.08;47.37
14253;BME280;7210;51.502;10.722;2023-05-27T12:29:15;101054.72;;;23.11;46.87
14253;BME280;7210;51.502;10.722;2023-05-27T12:31:43;101024.03;;;22.92;46.91
14253;BME280;7210;51.502;10.722;2023-05-27T12:34:12;101037.75;;;23.00;46.91
14253;BME280;7210;51.502;10.722;2023-05-27T12:36:39;101076.31;;;23.11;47.21
14253;BME280;7210;51.502;10.722;2023-05-27T12:39:07;101037.72;;;23.30;46.25
14253;BME280;7210;51.502;10.722;2023-05-27T12:41:34;101114.09;;;23.41;47.20
14253;BME280;7210;51.502;10.722;2023-05-27T12:44:02;101115.69;;;23.62;47.03
14253;BME280;7210;51.502;10.722;2023-05-27T12:46:29;101079.47;;;23.58;47.01
14253;BME280;7210;51.502;10.722;2023-05-27T12:48:56;101092.97;;;23.68;46.59
14253;BME280;7210;51.502;10.722;2023-05-27T12:51:24;101133.44;;;23.83;47.04
14253;BME280;7210;51.502;10.722;2023-05-27T12:53:51;101025.59;;;23.86;45.30
14253;BME280;7210;51.502;10.722;2023-05-27T12:56:20;101026.47;;;23.77;45.79
14253;BME280;7210;51.502;10.722;2023-05-27T12:58:47;101028.06;;;23.77;45.53
14253;BME280;7210;51.502;10.722;2023-05-27T13:01:14;101053.47;;;23.87;45.99
14253;BME280;7210;51.502;10.722;2023-05-27T13:03:42;101025.34;;;23.83;45.49
14253;BME280;7210;51.502;10.722;2023-05-27T13:06:09;101077.19;;;23.94;46.55
14253;BME280;7210;51.502;10.722;2023-05-27T13:08:36;101083.00;;;24.21;45.30
14253;BME280;7210;51.502;10.722;2023-05-27T13:11:03;101061.31;;;24.31;45.00
14253;BME280;7210;51.502;10.722;2023-05-27T13:13:32;101047.25;;;24.29;45.32
14253;BME280;7210;51.502;10.722;2023-05-27T13:15:59;101059.53;;;24.50;44.87